Time;durP1;ratioP1;P1;durP2;ratioP2;P2;SDS_P1;SDS_P2;PMS_P1;PMS_P2;Temp;Humidity;BMP_temperature;BMP_pressure;BME280_temperature;BME280_humidity;BME280_pressure;Samples;Min_cycle;Max_cycle;Signal;HPM_P1;HPM_P2
2023/02/21 02:16:27;;;;;;;5.65;3.25;;;;;;;10.30;59.75;99581.16;4482804;31;37143;-93
2023/02/21 02:19:22;;;;;;;8.05;3.70;;;;;;;10.33;59.75;99575.84;4459935;31;20128;-90
2023/02/21 02:22:16;;;;;;;8.80;3.95;;;;;;;10.44;59.76;99591.97;4469323;31;20718;-90
2023/02/21 02:25:18;;;;;;;8.55;3.83;;;;;;;10.50;59.77;99597.84;4487092;32;20099;-92
2023/02/21 02:27:44;;;;;;;9.43;4.15;;;;;;;10.48;59.76;99582.28;4484550;31;20108;-91
2023/02/21 02:30:30;;;;;;;7.72;3.55;;;;;;;10.59;59.77;99579.31;4487920;31;20079;-93
2023/02/21 02:33:07;;;;;;;8.20;3.60;;;;;;;10.58;59.77;99578.47;4486943;32;20108;-93
2023/02/21 02:35:36;;;;;;;8.60;3.97;;;;;;;10.48;59.76;99584.91;4485521;32;20093;-93
2023/02/21 02:38:49;;;;;;;7.03;3.45;;;;;;;10.50;59.77;99572.69;4460755;32;20156;-93
2023/02/21 02:41:24;;;;;;;11.12;3.55;;;;;;;10.49;59.76;99568.38;4444038;32;20123;-91
2023/02/21 02:43:53;;;;;;;6.87;3.95;;;;;;;10.54;59.76;99574.28;4471403;32;20145;-90
2023/02/21 02:46:24;;;;;;;5.78;3.20;;;;;;;10.55;59.77;99562.97;4474649;31;20076;-91
2023/02/21 02:48:54;;;;;;;9.23;3.55;;;;;;;10.55;59.76;99567.31;4487088;31;20247;-90
2023/02/21 02:51:20;;;;;;;;;;;;;;;10.49;59.77;99563.19;4470716;32;20096;-88
2023/02/21 02:53:45;;;;;;;7.60;2.80;;;;;;;10.54;59.76;99563.88;4477781;32;20273;-89
2023/02/21 02:56:15;;;;;;;4.97;2.62;;;;;;;10.39;59.75;99559.19;4481145;32;20173;-90
2023/02/21 02:59:24;;;;;;;5.32;2.53;;;;;;;10.35;59.76;99557.59;4467340;31;20130;-92
2023/02/21 03:01:55;;;;;;;6.60;2.70;;;;;;;10.16;59.74;99557.31;4475637;32;20083;-91
2023/02/21 03:04:40;;;;;;;6.70;2.58;;;;;;;10.22;59.74;99558.91;4485861;31;20445;-90
2023/02/21 03:07:33;;;;;;;5.40;2.60;;;;;;;10.13;59.74;99545.28;4483614;31;20456;-92
2023/02/21 03:10:20;;;;;;;4.07;2.42;;;;;;;10.07;59.74;99536.81;4482355;31;20152;-92
2023/02/21 03:13:36;;;;;;;7.12;2.40;;;;;;;9.99;59.74;99531.88;4491173;31;20797;-92
2023/02/21 03:16:04;;;;;;;4.50;2.22;;;;;;;9.88;59.74;99540.94;4478086;31;20122;-90
2023/02/21 03:18:53;;;;;;;4.90;2.03;;;;;;;9.96;59.73;99539.78;4484353;32;20139;-91
2023/02/21 03:21:25;;;;;;;4.37;2.30;;;;;;;10.01;59.73;99548.28;4473110;31;20105;-89
2023/02/21 03:23:52;;;;;;;4.97;2.03;;;;;;;9.90;59.73;99555.56;4464158;31;20149;-90
2023/02/21 03:26:18;;;;;;;6.55;1.77;;;;;;;10.12;59.74;99559.16;4484583;31;20437;-90
2023/02/21 03:28:43;;;;;;;3.60;1.60;;;;;;;10.24;59.74;99557.13;4474472;31;20173;-90
2023/02/21 03:31:09;;;;;;;2.75;1.42;;;;;;;10.24;59.76;99563.16;4471507;31;20092;-90
2023/02/21 03:33:34;;;;;;;3.67;1.27;;;;;;;10.23;59.74;99564.06;4471412;32;20159;-90
2023/02/21 03:36:02;;;;;;;3.37;1.20;;;;;;;10.36;59.76;99559.28;4458134;31;20171;-91
2023/02/21 03:38:29;;;;;;;3.12;1.00;;;;;;;10.37;59.76;99563.59;4471246;32;20105;-90
2023/02/21 03:40:54;;;;;;;1.70;0.90;;;;;;;10.65;59.77;99560.91;4471317;31;20189;-91
2023/02/21 03:43:19;;;;;;;1.65;1.00;;;;;;;10.68;59.77;99558.19;4484414;32;20433;-89
2023/02/21 03:45:45;;;;;;;4.28;1.20;;;;;;;10.79;59.78;99557.78;4471466;31;20104;-92
2023/02/21 03:48:10;;;;;;;3.70;1.00;;;;;;;10.72;59.78;99558.00;4462413;32;20153;-93
2023/02/21 03:50:36;;;;;;;4.37;0.85;;;;;;;10.84;59.79;99561.06;4458287;32;20143;-90
2023/02/21 03:53:02;;;;;;;1.90;0.93;;;;;;;10.88;59.79;99560.06;4471234;32;20088;-90
2023/02/21 03:55:27;;;;;;;4.00;0.95;;;;;;;11.11;59.80;99557.44;4467254;31;20368;-90
2023/02/21 03:57:53;;;;;;;1.87;1.20;;;;;;;10.98;59.79;99557.06;4477823;31;20176;-91
2023/02/21 04:00:18;;;;;;;2.30;0.80;;;;;;;10.99;59.79;99558.78;4474538;31;20161;-90
2023/02/21 04:02:44;;;;;;;1.52;0.90;;;;;;;10.93;59.79;99560.75;4484350;32;20129;-90
2023/02/21 04:05:09;;;;;;;5.15;0.90;;;;;;;10.86;59.78;99548.84;4481633;31;20088;-93
2023/02/21 04:07:35;;;;;;;2.10;1.10;;;;;;;10.89;59.79;99540.94;4458451;32;20122;-90
2023/02/21 04:10:00;;;;;;;2.83;0.80;;;;;;;10.92;59.79;99548.66;4486030;31;20096;-89
2023/02/21 04:12:26;;;;;;;2.78;1.00;;;;;;;10.92;59.79;99544.28;4470939;32;20118;-89
2023/02/21 04:14:51;;;;;;;1.85;0.77;;;;;;;10.99;59.79;99532.72;4487437;31;20084;-88
2023/02/21 04:17:17;;;;;;;3.08;0.93;;;;;;;11.00;59.79;99549.19;4483783;32;20127;-88
2023/02/21 04:19:42;;;;;;;3.55;0.90;;;;;;;11.11;59.79;99548.78;4483939;31;20113;-88
2023/02/21 04:22:08;;;;;;;3.35;0.82;;;;;;;11.06;59.79;99557.63;4478531;31;20110;-88
2023/02/21 04:24:34;;;;;;;3.17;0.82;;;;;;;11.22;59.80;99546.66;4459918;32;20121;-87
2023/02/21 04:27:00;;;;;;;2.12;1.15;;;;;;;11.17;59.80;99554.62;4470657;32;20369;-89
2023/02/21 04:29:26;;;;;;;4.15;1.23;;;;;;;11.22;59.80;99557.06;4471291;32;20457;-88
2023/02/21 04:31:52;;;;;;;1.48;1.05;;;;;;;11.23;59.80;99556.16;4470337;32;20148;-90
2023/02/21 04:34:17;;;;;;;2.83;0.90;;;;;;;11.21;59.80;99563.19;4458188;32;20433;-90
2023/02/21 04:36:43;;;;;;;2.47;0.80;;;;;;;11.10;59.79;99568.78;4473262;31;20354;-90
2023/02/21 04:39:08;;;;;;;2.80;0.80;;;;;;;11.13;59.79;99565.25;4471594;32;20148;-90
2023/02/21 04:41:34;;;;;;;2.00;1.00;;;;;;;11.20;59.80;99557.13;4474055;31;20128;-91
2023/02/21 04:43:59;;;;;;;2.70;0.77;;;;;;;11.16;59.80;99546.88;4486840;31;20083;-91
2023/02/21 04:46:24;;;;;;;1.75;0.70;;;;;;;11.14;59.79;99543.50;4463687;31;20096;-88
2023/02/21 04:48:50;;;;;;;1.67;0.70;;;;;;;11.08;59.80;99542.78;4489011;31;20122;-90
2023/02/21 04:51:17;;;;;;;1.23;0.60;;;;;;;10.99;59.79;99534.47;4470724;32;20089;-89
2023/02/21 04:53:43;;;;;;;3.10;1.10;;;;;;;11.00;59.79;99544.84;4475411;31;20119;-89
2023/02/21 04:56:09;;;;;;;1.02;0.60;;;;;;;11.02;59.80;99534.38;4484101;32;20400;-89
2023/02/21 04:58:35;;;;;;;1.25;0.68;;;;;;;10.87;59.79;99542.72;4485099;31;20134;-90
2023/02/21 05:01:00;;;;;;;2.47;0.85;;;;;;;11.01;59.80;99545.69;4484029;32;20472;-90
2023/02/21 05:03:26;;;;;;;1.30;0.62;;;;;;;11.07;59.79;99540.25;4466770;31;20118;-90
2023/02/21 05:05:51;;;;;;;2.22;0.90;;;;;;;11.15;59.79;99546.03;4464135;31;20145;-91
2023/02/21 05:08:17;;;;;;;1.98;0.80;;;;;;;11.29;59.80;99538.53;4462424;31;20168;-90
2023/02/21 05:10:42;;;;;;;3.45;1.02;;;;;;;11.13;59.80;99545.25;4462172;32;20073;-91
2023/02/21 05:13:07;;;;;;;1.55;0.90;;;;;;;11.12;59.80;99546.16;4457690;31;20461;-91
2023/02/21 05:15:33;;;;;;;1.23;0.62;;;;;;;11.28;59.81;99538.59;4457965;32;20365;-91
2023/02/21 05:17:58;;;;;;;4.12;0.85;;;;;;;11.31;59.81;99536.72;4471223;31;20403;-93
2023/02/21 05:20:27;;;;;;;1.52;0.77;;;;;;;11.38;59.82;99534.75;4466033;31;20162;-94
2023/02/21 05:23:32;;;;;;;1.23;0.70;;;;;;;11.27;59.81;99539.50;4475014;31;20120;-94
2023/02/21 05:26:40;;;;;;;1.65;1.02;;;;;;;11.19;59.80;99547.62;4479461;31;20104;-95
2023/02/21 05:29:06;;;;;;;2.80;0.73;;;;;;;11.34;59.81;99540.94;4437605;32;20433;-92
2023/02/21 05:31:32;;;;;;;3.12;1.08;;;;;;;11.38;59.82;99532.97;4472187;31;20207;-93
2023/02/21 05:33:57;;;;;;;3.55;0.88;;;;;;;11.34;59.81;99533.97;4474155;31;20122;-93
2023/02/21 05:36:24;;;;;;;1.50;0.90;;;;;;;11.40;59.82;99548.56;4481883;32;20108;-93
2023/02/21 05:38:51;;;;;;;2.17;1.15;;;;;;;11.30;59.80;99539.38;4480205;31;20135;-93
2023/02/21 05:41:17;;;;;;;2.87;0.80;;;;;;;11.34;59.81;99530.53;4471946;32;20084;-93
2023/02/21 05:43:46;;;;;;;3.40;0.90;;;;;;;11.20;59.80;99543.25;4471890;32;20115;-93
2023/02/21 05:46:28;;;;;;;1.70;0.80;;;;;;;11.41;59.82;99547.66;4461508;32;20677;-93
2023/02/21 05:48:54;;;;;;;1.58;1.00;;;;;;;11.43;59.81;99547.59;4472788;31;20164;-95
2023/02/21 05:51:20;;;;;;;0.80;0.65;;;;;;;11.39;59.81;99546.84;4461691;32;20097;-91
2023/02/21 05:53:45;;;;;;;1.90;0.75;;;;;;;11.49;59.82;99542.97;4458058;31;20118;-92
2023/02/21 05:56:11;;;;;;;3.10;1.08;;;;;;;11.54;59.82;99543.63;4457869;32;20099;-90
2023/02/21 05:58:37;;;;;;;3.70;0.95;;;;;;;11.34;59.81;99544.41;4467087;31;20152;-92
2023/02/21 06:01:02;;;;;;;2.83;0.90;;;;;;;11.53;59.83;99546.31;4464914;31;20804;-92
2023/02/21 06:03:28;;;;;;;1.87;0.77;;;;;;;11.62;59.83;99553.78;4484921;31;20352;-92
2023/02/21 06:05:53;;;;;;;2.33;1.20;;;;;;;11.69;59.83;99547.41;4464918;31;20108;-91
2023/02/21 06:08:19;;;;;;;2.87;0.70;;;;;;;11.64;59.83;99549.34;4475256;31;20100;-91
2023/02/21 06:10:44;;;;;;;4.07;0.90;;;;;;;11.59;59.82;99553.88;4462188;32;20196;-91
2023/02/21 06:13:10;;;;;;;5.07;1.10;;;;;;;11.61;59.83;99562.53;4467241;31;20084;-93
2023/02/21 06:15:35;;;;;;;3.30;1.08;;;;;;;11.70;59.83;99546.50;4464895;31;20461;-94
2023/02/21 06:18:01;;;;;;;2.53;0.57;;;;;;;11.70;59.84;99551.72;4470764;32;20410;-94
2023/02/21 06:20:26;;;;;;;2.03;0.93;;;;;;;11.59;59.83;99566.91;4462529;32;20114;-92
2023/02/21 06:22:52;;;;;;;1.12;0.70;;;;;;;11.74;59.83;99561.09;4457425;31;20099;-91
2023/02/21 06:25:17;;;;;;;1.35;1.20;;;;;;;11.72;59.83;99560.31;4464922;31;20112;-91
2023/02/21 06:27:43;;;;;;;3.33;0.70;;;;;;;11.87;59.84;99558.91;4461192;32;20415;-90
2023/02/21 06:30:12;;;;;;;3.45;1.10;;;;;;;11.85;59.84;99568.56;4461760;31;20104;-93
2023/02/21 06:32:37;;;;;;;1.87;1.08;;;;;;;11.95;59.84;99565.50;4463911;32;20105;-91
2023/02/21 06:35:03;;;;;;;4.40;0.90;;;;;;;11.93;59.84;99559.50;4467935;32;20338;-91
2023/02/21 06:37:28;;;;;;;1.87;1.33;;;;;;;11.94;59.84;99566.41;4464839;31;20151;-91
2023/02/21 06:39:54;;;;;;;2.65;1.00;;;;;;;11.93;59.84;99567.31;4457695;32;20147;-91
2023/02/21 06:42:20;;;;;;;1.92;0.93;;;;;;;12.05;59.85;99585.97;4457785;32;20088;-91
2023/02/21 06:44:46;;;;;;;5.87;1.20;;;;;;;11.94;59.84;99579.47;4462767;31;20437;-91
2023/02/21 06:47:11;;;;;;;3.00;1.02;;;;;;;11.96;59.84;99587.22;4471102;32;20126;-90
2023/02/21 06:49:37;;;;;;;2.17;1.12;;;;;;;12.02;59.85;99586.97;4459598;32;20096;-90
2023/02/21 06:52:02;;;;;;;1.92;0.80;;;;;;;12.02;59.85;99594.78;4470428;31;20685;-92
2023/02/21 06:54:28;;;;;;;3.58;0.90;;;;;;;12.16;59.86;99591.63;4465496;31;20104;-91
2023/02/21 06:56:58;;;;;;;2.33;0.90;;;;;;;12.43;59.88;99589.63;4473254;31;20518;-93
2023/02/21 06:59:27;;;;;;;5.12;1.10;;;;;;;12.47;59.87;99578.16;4469749;32;20097;-93
2023/02/21 07:01:54;;;;;;;5.67;1.97;;;;;;;12.46;59.87;99592.97;4461807;31;20100;-89
2023/02/21 07:04:19;;;;;;;3.97;1.35;;;;;;;12.58;59.88;99595.06;4472735;31;20159;-92
2023/02/21 07:06:45;;;;;;;3.60;1.27;;;;;;;12.78;59.89;99593.38;4481770;31;20180;-92
2023/02/21 07:09:10;;;;;;;2.53;1.25;;;;;;;12.80;59.89;99595.00;4464493;32;20135;-92
2023/02/21 07:11:35;;;;;;;3.22;0.93;;;;;;;12.86;59.90;99592.09;4459662;32;20104;-93
2023/02/21 07:14:01;;;;;;;1.83;0.90;;;;;;;12.97;59.90;99589.00;4467013;31;20134;-91
2023/02/21 07:16:26;;;;;;;1.60;0.85;;;;;;;12.92;59.90;99596.22;4472227;31;20139;-91
2023/02/21 07:18:52;;;;;;;2.50;1.00;;;;;;;12.95;59.90;99592.59;4467061;31;20092;-91
2023/02/21 07:21:24;;;;;;;4.85;1.08;;;;;;;12.99;59.90;99600.22;4474903;31;20157;-90
2023/02/21 07:23:50;;;;;;;2.95;1.48;;;;;;;13.14;59.91;99596.94;4466054;32;20168;-91
2023/02/21 07:26:15;;;;;;;3.33;1.50;;;;;;;13.15;59.91;99601.25;4474117;31;20392;-91
2023/02/21 07:28:46;;;;;;;1.83;1.10;;;;;;;13.19;59.92;99605.47;4485810;31;20422;-92
2023/02/21 07:31:12;;;;;;;1.10;0.60;;;;;;;13.16;59.91;99605.56;4470715;31;20553;-92
2023/02/21 07:33:37;;;;;;;5.28;1.02;;;;;;;13.12;59.91;99604.00;4481921;32;20101;-93
2023/02/21 07:36:06;;;;;;;1.80;0.70;;;;;;;13.05;59.91;99614.81;4470183;31;20159;-94
2023/02/21 07:38:31;;;;;;;2.00;0.80;;;;;;;13.10;59.91;99605.00;4467428;32;20088;-90
2023/02/21 07:40:58;;;;;;;2.65;1.00;;;;;;;13.14;59.91;99612.63;4458958;31;20142;-92
2023/02/21 07:43:24;;;;;;;2.28;0.82;;;;;;;13.35;59.92;99612.63;4465572;31;20130;-90
2023/02/21 07:45:50;;;;;;;2.70;0.75;;;;;;;13.23;59.91;99610.53;4471914;31;20366;-91
2023/02/21 07:48:15;;;;;;;1.80;0.88;;;;;;;13.36;59.92;99606.47;4458515;32;20119;-92
2023/02/21 07:50:44;;;;;;;1.02;0.68;;;;;;;13.37;59.93;99606.41;4471972;31;20108;-93
2023/02/21 07:53:10;;;;;;;1.75;1.00;;;;;;;13.37;59.93;99577.62;4464038;32;20162;-92
2023/02/21 07:55:35;;;;;;;2.60;0.88;;;;;;;13.44;59.93;99606.97;4469548;31;20112;-91
2023/02/21 07:58:01;;;;;;;2.72;0.90;;;;;;;13.33;59.92;99609.22;4458733;32;20110;-92
2023/02/21 08:00:27;;;;;;;2.83;1.00;;;;;;;13.56;59.93;99610.78;4468336;31;20104;-90
2023/02/21 08:02:52;;;;;;;4.95;0.80;;;;;;;13.60;59.93;99609.72;4459090;32;20100;-91
2023/02/21 08:05:18;;;;;;;3.70;0.88;;;;;;;13.84;59.95;99608.56;4468878;31;20122;-91
2023/02/21 08:07:44;;;;;;;1.60;0.90;;;;;;;14.02;59.96;99612.09;4463555;32;20147;-91
2023/02/21 08:10:10;;;;;;;3.80;0.70;;;;;;;14.05;59.96;99610.16;4458421;31;20092;-92
2023/02/21 08:12:35;;;;;;;4.43;0.90;;;;;;;14.06;59.96;99604.00;4465025;32;20089;-91
2023/02/21 08:15:00;;;;;;;2.62;0.65;;;;;;;14.14;59.97;99598.38;4460974;32;20188;-92
2023/02/21 08:17:26;;;;;;;2.25;0.80;;;;;;;14.23;59.97;99603.19;4464075;32;20110;-91
2023/02/21 08:19:51;;;;;;;2.58;0.80;;;;;;;14.25;59.98;99601.34;4471729;32;20522;-91
2023/02/21 08:22:17;;;;;;;1.87;0.62;;;;;;;14.03;59.97;99593.69;4458576;32;20112;-91
2023/02/21 08:24:43;;;;;;;3.05;0.90;;;;;;;13.82;59.95;99599.94;4469358;32;20142;-93
2023/02/21 08:27:09;;;;;;;2.05;0.90;;;;;;;13.78;59.94;99612.34;4473934;31;20096;-92
2023/02/21 08:29:36;;;;;;;1.65;0.68;;;;;;;14.03;59.96;99619.00;4472184;31;20445;-92
2023/02/21 08:32:02;;;;;;;2.97;0.80;;;;;;;14.18;59.97;99605.16;4486940;31;20108;-91
2023/02/21 08:34:40;;;;;;;;;;;;;;;;;;;;;
2023/02/21 08:37:18;;;;;;;4.18;1.08;;;;;;;14.17;59.97;99605.25;4480133;31;36542;-91
2023/02/21 08:39:45;;;;;;;5.20;1.08;;;;;;;14.16;59.97;99593.91;4473061;32;20103;-91
2023/02/21 08:42:31;;;;;;;5.87;1.12;;;;;;;14.16;59.97;99614.84;4458698;32;20116;-93
2023/02/21 08:44:57;;;;;;;2.37;1.10;;;;;;;14.15;59.97;99618.41;4471330;32;20126;-92
2023/02/21 08:47:22;;;;;;;2.03;0.75;;;;;;;14.19;59.97;99619.09;4467039;31;20369;-91
2023/02/21 08:49:48;;;;;;;3.72;1.10;;;;;;;14.37;59.98;99619.03;4464655;31;20084;-92
2023/02/21 08:52:15;;;;;;;2.42;0.93;;;;;;;14.31;59.97;99623.75;4488863;31;20100;-93
2023/02/21 08:54:41;;;;;;;1.50;0.73;;;;;;;14.39;59.98;99613.72;4458537;32;20160;-91
2023/02/21 08:57:06;;;;;;;3.53;1.10;;;;;;;14.50;59.99;99623.72;4467171;31;20353;-91
2023/02/21 08:59:32;;;;;;;1.98;0.98;;;;;;;14.67;59.99;99616.72;4462820;32;20418;-92
2023/02/21 09:02:03;;;;;;;3.03;1.55;;;;;;;14.56;59.99;99616.41;4458958;31;20103;-93
2023/02/21 09:04:28;;;;;;;4.35;1.15;;;;;;;14.56;59.99;99618.16;4463365;32;20113;-92
2023/02/21 09:06:56;;;;;;;4.90;1.12;;;;;;;14.42;59.98;99621.44;4484313;31;20115;-93
2023/02/21 09:09:25;;;;;;;2.58;1.15;;;;;;;14.49;59.99;99622.03;4466410;31;20113;-94
2023/02/21 09:11:50;;;;;;;3.58;1.27;;;;;;;14.61;59.99;99619.63;4470647;32;20131;-92
2023/02/21 09:14:18;;;;;;;2.72;1.33;;;;;;;14.66;59.99;99615.00;4480321;31;20104;-92
2023/02/21 09:16:44;;;;;;;4.50;1.58;;;;;;;14.68;59.99;99602.69;4470297;32;20168;-91
2023/02/21 09:19:09;;;;;;;2.28;1.37;;;;;;;14.74;60.00;99612.84;4464894;32;20100;-93
2023/02/21 09:21:44;;;;;;;4.40;1.17;;;;;;;14.75;60.00;99611.06;4458502;32;20119;-93
2023/02/21 09:24:10;;;;;;;3.95;1.30;;;;;;;14.95;60.01;99603.03;4471891;32;20165;-93
2023/02/21 09:26:37;;;;;;;2.00;1.25;;;;;;;15.04;60.02;99615.66;4458688;31;20441;-92
2023/02/21 09:29:03;;;;;;;2.17;1.20;;;;;;;14.91;60.00;99612.00;4459196;32;20115;-92
2023/02/21 09:31:29;;;;;;;1.50;1.20;;;;;;;14.85;60.01;99608.81;4484937;31;20124;-93
2023/02/21 09:33:54;;;;;;;5.82;1.27;;;;;;;14.94;60.01;99606.59;4485336;32;20355;-93
2023/02/21 09:36:25;;;;;;;3.72;1.42;;;;;;;14.95;60.01;99615.28;4473436;31;20104;-93
2023/02/21 09:38:51;;;;;;;4.40;1.08;;;;;;;14.81;60.00;99608.12;4480459;31;20122;-91
2023/02/21 09:41:17;;;;;;;3.95;1.52;;;;;;;14.89;60.01;99605.94;4471082;32;20108;-94
2023/02/21 09:43:45;;;;;;;3.33;1.10;;;;;;;14.83;60.00;99606.28;4450691;32;254681;-92
2023/02/21 09:46:20;;;;;;;3.45;1.20;;;;;;;14.86;60.00;99598.25;4446883;32;20127;-92
2023/02/21 09:48:46;;;;;;;3.03;1.25;;;;;;;14.92;60.01;99607.59;4484482;32;20068;-92
2023/02/21 09:51:24;;;;;;;;;;;;;;;;;;;;;
2023/02/21 09:53:51;;;;;;;4.43;1.10;;;;;;;15.24;60.02;99611.13;4471637;31;35283;-92
2023/02/21 09:56:22;;;;;;;4.15;1.12;;;;;;;15.08;60.02;99607.63;4471243;32;20123;-93
2023/02/21 09:58:57;;;;;;;;;;;;;;;;;;;;;
2023/02/21 10:01:52;;;;;;;5.22;1.17;;;;;;;15.14;60.02;99609.91;4471268;32;36050;-92
2023/02/21 10:04:51;;;;;;;3.95;1.20;;;;;;;15.31;60.04;99612.50;4468764;32;20465;-94
2023/02/21 10:07:43;;;;;;;2.92;0.88;;;;;;;15.60;60.04;99608.31;4483953;32;20138;-92
2023/02/21 10:10:26;;;;;;;1.77;1.05;;;;;;;15.72;60.05;99620.78;4483327;31;20088;-92
2023/02/21 10:13:31;;;;;;;2.97;0.95;;;;;;;15.83;60.06;99605.25;4473573;31;20460;-92
2023/02/21 10:16:22;;;;;;;3.80;1.10;;;;;;;16.19;60.08;99607.59;4484070;31;20112;-92
2023/02/21 10:18:58;;;;;;;1.95;1.15;;;;;;;16.35;60.08;99604.94;4472733;32;20159;-91
2023/02/21 10:21:34;;;;;;;2.85;1.10;;;;;;;16.42;60.09;99615.94;4473427;31;20097;-91
2023/02/21 10:24:03;;;;;;;2.28;0.90;;;;;;;16.45;60.09;99613.13;4469769;32;20108;-92
2023/02/21 10:26:32;;;;;;;2.85;1.30;;;;;;;16.58;60.10;99611.50;4472341;31;20479;-91
2023/02/21 10:28:57;;;;;;;6.22;1.00;;;;;;;16.75;60.10;99621.88;4470103;32;20117;-92
2023/02/21 10:31:34;;;;;;;1.98;0.82;;;;;;;16.82;60.11;99617.12;4467751;31;20390;-92
2023/02/21 10:33:59;;;;;;;2.62;0.98;;;;;;;16.56;60.10;99605.44;4462806;32;20749;-92
2023/02/21 10:36:25;;;;;;;2.58;1.20;;;;;;;16.49;60.09;99615.47;4470208;32;20430;-92
2023/02/21 10:39:08;;;;;;;3.78;1.15;;;;;;;16.60;60.11;99600.88;4465255;31;20113;-92
2023/02/21 10:41:35;;;;;;;3.15;1.00;;;;;;;16.90;60.12;99611.38;4469949;32;20452;-91
2023/02/21 10:44:06;;;;;;;2.47;1.08;;;;;;;16.91;60.12;99611.28;4467808;31;20145;-92
2023/02/21 10:46:52;;;;;;;6.78;1.40;;;;;;;16.65;60.11;99604.09;4457588;32;20130;-92
2023/02/21 10:49:17;;;;;;;1.70;0.68;;;;;;;16.68;60.10;99602.16;4470757;32;20092;-92
2023/02/21 10:51:43;;;;;;;2.25;1.42;;;;;;;16.57;60.10;99596.66;4483108;32;20419;-92
2023/02/21 10:54:20;;;;;;;1.83;1.23;;;;;;;16.61;60.09;99595.53;4467677;32;20113;-91
2023/02/21 10:56:49;;;;;;;4.78;1.27;;;;;;;16.32;60.09;99606.88;4473031;31;20100;-90
2023/02/21 10:59:31;;;;;;;2.55;1.15;;;;;;;16.04;60.07;99605.00;4470034;32;20083;-92
2023/02/21 11:02:00;;;;;;;1.95;0.93;;;;;;;16.28;60.09;99606.22;4470221;31;20712;-91
2023/02/21 11:04:37;;;;;;;2.07;1.17;;;;;;;16.31;60.09;99621.81;4470346;32;20135;-91
2023/02/21 11:07:07;;;;;;;1.62;1.12;;;;;;;15.98;60.07;99614.06;4472238;31;20116;-93
2023/02/21 11:09:42;;;;;;;2.90;1.33;;;;;;;16.31;60.08;99607.81;4485647;31;20084;-91
2023/02/21 11:12:21;;;;;;;2.03;1.10;;;;;;;16.12;60.08;99601.03;4470040;32;20110;-91
2023/02/21 11:14:50;;;;;;;3.12;1.30;;;;;;;16.08;60.08;99624.88;4470623;31;20461;-92
2023/02/21 11:17:22;;;;;;;2.35;0.80;;;;;;;16.37;60.08;99618.00;4484412;31;20126;-93
2023/02/21 11:19:57;;;;;;;2.30;1.00;;;;;;;16.23;60.08;99605.66;4485400;31;20088;-91
2023/02/21 11:22:40;;;;;;;1.65;1.20;;;;;;;15.91;60.06;99617.97;4472979;31;20103;-93
2023/02/21 11:25:25;;;;;;;3.12;1.10;;;;;;;15.89;60.07;99627.72;4473491;31;20104;-91
2023/02/21 11:28:04;;;;;;;4.87;1.42;;;;;;;16.00;60.06;99611.34;4469531;32;20142;-91
2023/02/21 11:30:32;;;;;;;3.58;1.45;;;;;;;16.12;60.08;99610.69;4470166;32;20089;-92
2023/02/21 11:32:58;;;;;;;1.50;1.10;;;;;;;16.02;60.07;99614.75;4466089;31;20182;-91
2023/02/21 11:35:24;;;;;;;3.37;1.30;;;;;;;16.04;60.07;99612.87;4465342;31;20156;-92
2023/02/21 11:38:02;;;;;;;2.87;1.35;;;;;;;16.00;60.07;99612.19;4492180;31;20135;-93
2023/02/21 11:40:31;;;;;;;4.25;1.70;;;;;;;15.94;60.07;99618.66;4484526;31;20486;-92
2023/02/21 11:43:24;;;;;;;1.70;1.12;;;;;;;15.93;60.07;99614.34;4462038;32;20164;-92
2023/02/21 11:46:01;;;;;;;4.55;1.50;;;;;;;16.29;60.08;99602.66;4479865;31;20164;-92
2023/02/21 11:48:37;;;;;;;1.52;1.15;;;;;;;16.47;60.10;99606.00;4493671;31;20179;-93
2023/02/21 11:51:07;;;;;;;4.07;1.40;;;;;;;16.24;60.08;99595.06;4472448;32;20112;-92
2023/02/21 11:53:40;;;;;;;4.10;1.52;;;;;;;16.23;60.09;99595.97;4465653;32;20101;-92
2023/02/21 11:56:30;;;;;;;3.53;1.48;;;;;;;16.37;60.09;99587.31;4478390;31;20108;-91
2023/02/21 11:58:59;;;;;;;;;;;;;;;15.97;60.07;99596.63;4490664;31;20112;-92
2023/02/21 12:02:03;;;;;;;3.08;1.48;;;;;;;15.95;60.07;99585.38;4488630;31;19972;-93
2023/02/21 12:04:32;;;;;;;2.95;1.27;;;;;;;16.14;60.07;99586.03;4490032;31;20075;-91
2023/02/21 12:07:10;;;;;;;4.47;1.75;;;;;;;16.22;60.08;99588.19;4474370;31;20520;-92
2023/02/21 12:09:44;;;;;;;2.33;1.25;;;;;;;16.27;60.09;99586.16;4493925;31;20810;-92
2023/02/21 12:12:17;;;;;;;2.85;1.37;;;;;;;16.22;60.08;99585.56;4471383;32;20084;-92
2023/02/21 12:14:45;;;;;;;3.45;1.58;;;;;;;16.25;60.09;99588.84;4483720;31;20520;-93
2023/02/21 12:17:13;;;;;;;2.40;1.45;;;;;;;16.31;60.08;99589.44;4481576;32;20195;-92
2023/02/21 12:20:08;;;;;;;3.17;1.52;;;;;;;16.35;60.09;99586.56;4477081;31;20787;-91
2023/02/21 12:22:56;;;;;;;5.90;1.58;;;;;;;16.43;60.09;99584.31;4479860;32;20115;-91
2023/02/21 12:25:28;;;;;;;2.83;1.45;;;;;;;16.44;60.09;99599.16;4482430;31;20102;-92
2023/02/21 12:28:16;;;;;;;2.58;1.45;;;;;;;16.40;60.10;99583.66;4487112;31;20160;-93
2023/02/21 12:31:06;;;;;;;3.65;1.23;;;;;;;16.52;60.10;99572.41;4471732;32;20179;-92
2023/02/21 12:33:50;;;;;;;3.37;1.48;;;;;;;16.69;60.10;99574.94;4486025;31;20101;-94
2023/02/21 12:36:31;;;;;;;6.43;1.27;;;;;;;16.74;60.11;99575.50;4484429;31;20129;-93
2023/02/21 12:39:22;;;;;;;2.62;1.25;;;;;;;16.76;60.10;99565.72;4484625;32;20764;-91
2023/02/21 12:42:10;;;;;;;3.15;1.50;;;;;;;16.77;60.12;99571.84;4487712;31;20440;-92
2023/02/21 12:44:55;;;;;;;4.53;1.62;;;;;;;16.70;60.11;99575.78;4475686;31;20175;-92
2023/02/21 12:47:27;;;;;;;3.65;1.92;;;;;;;16.76;60.11;99572.78;4472321;31;20125;-93
2023/02/21 12:49:55;;;;;;;2.62;1.60;;;;;;;16.69;60.10;99571.47;4464606;32;20108;-92
2023/02/21 12:52:49;;;;;;;2.80;1.45;;;;;;;16.54;60.09;99562.66;4483949;31;20147;-92
2023/02/21 12:55:19;;;;;;;2.80;1.25;;;;;;;16.34;60.10;99569.13;4471414;32;20144;-92
2023/02/21 12:58:27;;;;;;;3.62;1.40;;;;;;;16.33;60.10;99562.16;4471502;32;20133;-93
2023/02/21 13:01:24;;;;;;;3.40;1.70;;;;;;;16.56;60.11;99563.41;4478846;31;20465;-91
2023/02/21 13:03:54;;;;;;;4.75;1.42;;;;;;;16.59;60.11;99558.00;4475634;32;20095;-92
2023/02/21 13:06:46;;;;;;;3.58;1.48;;;;;;;16.54;60.10;99554.78;4458647;32;20123;-93
2023/02/21 13:09:27;;;;;;;2.40;1.50;;;;;;;16.48;60.10;99561.25;4470965;31;20099;-92
2023/02/21 13:11:57;;;;;;;3.10;1.55;;;;;;;16.41;60.10;99553.84;4460413;32;20164;-93
2023/02/21 13:14:25;;;;;;;3.47;1.30;;;;;;;16.41;60.10;99553.84;4471506;32;20154;-92
2023/02/21 13:16:52;;;;;;;2.53;1.25;;;;;;;16.34;60.09;99552.50;4481778;32;20152;-93
2023/02/21 13:19:17;;;;;;;1.83;1.02;;;;;;;16.40;60.10;99558.25;4473792;31;20144;-93
2023/02/21 13:21:52;;;;;;;4.35;1.40;;;;;;;16.44;60.09;99567.63;4463654;31;20116;-93
2023/02/21 13:24:37;;;;;;;1.95;1.30;;;;;;;16.39;60.10;99563.59;4500794;31;20151;-94
2023/02/21 13:27:40;;;;;;;2.12;1.17;;;;;;;16.16;60.08;99559.66;4482643;32;20530;-92
2023/02/21 13:30:38;;;;;;;3.50;1.30;;;;;;;16.13;60.08;99567.72;4489054;32;20200;-92
2023/02/21 13:33:20;;;;;;;2.33;1.08;;;;;;;16.12;60.08;99564.25;4484308;31;21273;-93
2023/02/21 13:35:50;;;;;;;3.95;1.50;;;;;;;15.98;60.06;99564.19;4463508;32;20298;-92
2023/02/21 13:38:18;;;;;;;1.92;1.10;;;;;;;16.10;60.08;99554.78;4474865;32;20088;-93
2023/02/21 13:41:23;;;;;;;3.15;1.67;;;;;;;15.96;60.07;99563.44;4480305;32;20061;-95
2023/02/21 13:43:52;;;;;;;4.10;1.67;;;;;;;16.02;60.08;99555.19;4468970;32;20101;-94
2023/02/21 13:46:36;;;;;;;4.28;1.80;;;;;;;15.97;60.07;99549.38;4475084;32;20104;-95
2023/02/21 13:49:41;;;;;;;2.08;1.23;;;;;;;15.85;60.07;99558.81;4502359;31;20119;-92
2023/02/21 13:52:14;;;;;;;3.15;1.30;;;;;;;15.91;60.06;99547.97;4484273;31;20096;-93
2023/02/21 13:55:30;;;;;;;3.97;1.20;;;;;;;15.83;60.06;99549.31;4498071;31;20138;-92
2023/02/21 13:57:59;;;;;;;2.05;1.10;;;;;;;15.86;60.07;99544.75;4488581;32;20124;-92
2023/02/21 14:00:28;;;;;;;2.87;1.02;;;;;;;15.80;60.06;99552.94;4487217;31;20514;-92
2023/02/21 14:02:57;;;;;;;4.68;1.58;;;;;;;15.71;60.06;99540.34;4488726;32;20107;-93
2023/02/21 14:05:23;;;;;;;4.43;1.50;;;;;;;15.80;60.06;99549.47;4489429;31;20072;-94
2023/02/21 14:07:57;;;;;;;2.17;1.27;;;;;;;15.82;60.06;99542.38;4480830;32;20367;-92
2023/02/21 14:10:46;;;;;;;2.10;1.00;;;;;;;15.68;60.05;99547.56;4460510;32;20857;-94
2023/02/21 14:13:22;;;;;;;14.65;6.50;;;;;;;15.84;60.06;99545.75;4480902;31;20104;-94
2023/02/21 14:15:57;;;;;;;4.93;4.03;;;;;;;15.90;60.06;99550.66;4471563;32;20135;-92